createdAt,value
2023-03-16T00:00:52.589Z,7.13
2023-03-16T00:03:20.596Z,5.88
2023-03-16T00:05:48.521Z,7.45
2023-03-16T00:08:16.080Z,7.95
2023-03-16T00:10:49.821Z,7.00
2023-03-16T00:13:17.880Z,5.93
2023-03-16T00:15:55.156Z,5.93
2023-03-16T00:18:23.607Z,8.57
2023-03-16T00:20:51.865Z,5.68
2023-03-16T00:23:19.278Z,7.05
2023-03-16T00:25:46.529Z,7.85
2023-03-16T00:28:14.062Z,6.72
2023-03-16T00:30:41.305Z,4.13
2023-03-16T00:33:08.588Z,5.75
2023-03-16T00:35:35.808Z,4.25
2023-03-16T00:38:03.920Z,5.70
2023-03-16T00:40:31.138Z,4.95
2023-03-16T00:42:58.299Z,7.43
2023-03-16T00:45:25.492Z,6.13
2023-03-16T00:47:54.206Z,6.38
2023-03-16T00:50:22.283Z,5.55
2023-03-16T00:52:49.518Z,5.68
2023-03-16T00:55:16.833Z,5.63
2023-03-16T00:57:44.910Z,4.93
2023-03-16T01:00:15.113Z,4.10
2023-03-16T01:02:42.444Z,4.35
2023-03-16T01:05:09.874Z,6.28
2023-03-16T01:07:37.080Z,5.82
2023-03-16T01:10:04.840Z,6.43
2023-03-16T01:12:32.050Z,6.43
2023-03-16T01:14:59.236Z,6.13
2023-03-16T01:17:26.817Z,4.65
2023-03-16T01:19:54.248Z,5.32
2023-03-16T01:22:21.494Z,6.35
2023-03-16T01:24:48.706Z,4.30
2023-03-16T01:27:15.882Z,4.40
2023-03-16T01:29:43.743Z,4.80
2023-03-16T01:32:12.110Z,8.30
2023-03-16T01:34:39.312Z,5.40
2023-03-16T01:37:06.549Z,5.50
2023-03-16T01:39:33.746Z,3.63
2023-03-16T01:42:01.039Z,3.30
2023-03-16T01:44:30.844Z,5.20
2023-03-16T01:46:58.488Z,3.92
2023-03-16T01:49:33.726Z,4.78
2023-03-16T01:52:02.715Z,3.78
2023-03-16T01:54:35.914Z,3.85
2023-03-16T01:57:09.232Z,3.50
2023-03-16T01:59:41.277Z,3.08
2023-03-16T02:02:08.976Z,5.00
2023-03-16T02:04:45.694Z,3.60
2023-03-16T02:07:16.920Z,3.40
2023-03-16T02:09:49.463Z,3.63
2023-03-16T02:12:18.012Z,4.25
2023-03-16T02:14:49.338Z,3.63
2023-03-16T02:17:17.640Z,4.90
2023-03-16T02:19:52.623Z,4.40
2023-03-16T02:22:19.985Z,2.90
2023-03-16T02:24:47.237Z,6.25
2023-03-16T02:27:19.788Z,3.47
2023-03-16T02:29:54.154Z,3.40
2023-03-16T02:32:22.989Z,3.78
2023-03-16T02:34:50.440Z,3.60
2023-03-16T02:37:17.677Z,3.85
2023-03-16T02:39:44.983Z,4.07
2023-03-16T02:42:17.588Z,4.05
2023-03-16T02:44:48.320Z,3.55
2023-03-16T02:47:24.698Z,3.08
2023-03-16T02:49:51.869Z,3.42
2023-03-16T02:52:19.387Z,2.65
2023-03-16T02:54:46.610Z,4.82
2023-03-16T02:57:13.847Z,2.83
2023-03-16T02:59:41.555Z,4.55
2023-03-16T03:02:10.891Z,3.25
2023-03-16T03:04:38.472Z,3.25
2023-03-16T03:07:06.150Z,3.78
2023-03-16T03:09:33.449Z,3.03
2023-03-16T03:12:01.119Z,2.90
2023-03-16T03:14:28.561Z,2.70
2023-03-16T03:16:56.054Z,3.20
2023-03-16T03:19:23.280Z,2.97
2023-03-16T03:21:50.648Z,2.75
2023-03-16T03:24:18.738Z,2.50
2023-03-16T03:26:45.985Z,3.15
2023-03-16T03:29:13.194Z,3.08
2023-03-16T03:31:40.435Z,2.50
2023-03-16T03:34:07.667Z,3.00
2023-03-16T03:36:35.032Z,3.30
2023-03-16T03:39:05.032Z,2.45
2023-03-16T03:41:32.936Z,3.13
2023-03-16T03:44:00.543Z,3.67
2023-03-16T03:46:27.916Z,2.70
2023-03-16T03:48:55.264Z,2.17
2023-03-16T03:51:22.456Z,3.17
2023-03-16T03:53:49.840Z,2.85
2023-03-16T03:56:17.074Z,2.50
2023-03-16T03:58:44.216Z,4.88
2023-03-16T04:01:11.374Z,3.38
2023-03-16T04:03:38.538Z,2.47
2023-03-16T04:06:07.639Z,2.88
2023-03-16T04:08:35.495Z,2.30
2023-03-16T04:11:02.682Z,2.85
2023-03-16T04:13:30.048Z,3.13
2023-03-16T04:15:58.192Z,4.22
2023-03-16T04:18:25.770Z,2.92
2023-03-16T04:20:53.214Z,3.80
2023-03-16T04:23:20.822Z,2.45
2023-03-16T04:25:48.824Z,2.88
2023-03-16T04:28:17.915Z,2.72
2023-03-16T04:30:45.357Z,2.88
2023-03-16T04:33:12.549Z,2.58
2023-03-16T04:35:39.764Z,3.05
2023-03-16T04:38:07.960Z,5.65
2023-03-16T04:40:35.196Z,2.47
2023-03-16T04:43:02.752Z,2.92
2023-03-16T04:45:29.966Z,3.28
2023-03-16T04:47:57.169Z,2.38
2023-03-16T04:50:24.368Z,2.72
2023-03-16T04:52:51.660Z,2.63
2023-03-16T04:55:18.886Z,3.42
2023-03-16T04:57:46.172Z,2.33
2023-03-16T05:00:18.931Z,2.35
2023-03-16T05:02:46.858Z,2.95
2023-03-16T05:05:15.207Z,2.42
2023-03-16T05:07:43.146Z,2.40
2023-03-16T05:10:11.173Z,2.28
2023-03-16T05:12:38.421Z,2.88
2023-03-16T05:15:06.439Z,2.67
2023-03-16T05:17:34.647Z,5.95
2023-03-16T05:20:01.884Z,3.80
2023-03-16T05:22:29.074Z,4.13
2023-03-16T05:24:56.305Z,2.10
2023-03-16T05:27:23.493Z,2.30
2023-03-16T05:29:50.673Z,4.18
2023-03-16T05:32:17.892Z,2.60
2023-03-16T05:34:45.143Z,2.25
2023-03-16T05:37:12.393Z,2.55
2023-03-16T05:39:39.686Z,4.30
2023-03-16T05:42:07.031Z,2.45
2023-03-16T05:44:34.360Z,5.45
2023-03-16T05:47:01.612Z,2.25
2023-03-16T05:49:28.908Z,2.75
2023-03-16T05:51:56.098Z,3.95
2023-03-16T05:54:23.263Z,3.13
2023-03-16T05:56:50.496Z,2.80
2023-03-16T05:59:20.712Z,3.00
2023-03-16T06:01:49.513Z,2.25
2023-03-16T06:04:16.899Z,2.55
2023-03-16T06:06:44.085Z,3.22
2023-03-16T06:09:11.367Z,2.88
2023-03-16T06:11:38.580Z,3.45
2023-03-16T06:14:05.716Z,3.22
2023-03-16T06:16:32.974Z,2.92
2023-03-16T06:19:00.224Z,4.80
2023-03-16T06:21:27.431Z,3.63
2023-03-16T06:23:54.665Z,6.75
2023-03-16T06:26:21.861Z,2.30
2023-03-16T06:28:49.276Z,3.78
2023-03-16T06:31:16.480Z,3.78
2023-03-16T06:33:43.734Z,6.75
2023-03-16T06:36:11.849Z,2.90
2023-03-16T06:38:39.126Z,9.18
2023-03-16T06:41:06.608Z,5.85
2023-03-16T06:43:33.880Z,5.28
2023-03-16T06:46:01.666Z,2.80
2023-03-16T06:48:28.974Z,3.00
2023-03-16T06:50:56.308Z,4.05
2023-03-16T06:53:23.713Z,4.03
2023-03-16T06:55:51.304Z,2.47
2023-03-16T06:58:18.597Z,6.75
2023-03-16T07:00:45.882Z,5.53
2023-03-16T07:03:13.853Z,4.35
2023-03-16T07:05:41.076Z,4.30
2023-03-16T07:08:09.278Z,9.05
2023-03-16T07:10:36.442Z,5.50
2023-03-16T07:13:04.267Z,8.10
2023-03-16T07:15:31.492Z,7.95
2023-03-16T07:17:58.699Z,7.93
2023-03-16T07:20:27.373Z,5.75
2023-03-16T07:22:54.690Z,4.15
2023-03-16T07:25:21.905Z,4.50
2023-03-16T07:27:49.142Z,5.38
2023-03-16T07:30:16.459Z,9.68
2023-03-16T07:32:43.748Z,7.95
2023-03-16T07:35:11.728Z,8.43
2023-03-16T07:37:39.085Z,7.63
2023-03-16T07:40:09.149Z,8.93
2023-03-16T07:42:36.928Z,4.18
2023-03-16T07:45:05.049Z,8.00
2023-03-16T07:47:33.581Z,7.93
2023-03-16T07:50:01.416Z,7.30
2023-03-16T07:52:28.822Z,6.55
2023-03-16T07:54:56.038Z,6.88
2023-03-16T07:57:23.238Z,9.85
2023-03-16T07:59:50.464Z,9.50
2023-03-16T08:02:19.631Z,4.80
2023-03-16T08:04:47.136Z,7.65
2023-03-16T08:07:15.224Z,5.75
2023-03-16T08:09:42.957Z,3.70
2023-03-16T08:12:11.376Z,4.43
2023-03-16T08:14:38.676Z,9.63
2023-03-16T08:17:07.451Z,13.40
2023-03-16T08:19:34.806Z,9.35
2023-03-16T08:22:02.302Z,5.63
2023-03-16T08:24:31.003Z,6.13
2023-03-16T08:26:58.682Z,9.75
2023-03-16T08:29:26.585Z,10.55
2023-03-16T08:31:56.260Z,4.05
2023-03-16T08:34:24.190Z,4.45
2023-03-16T08:36:51.509Z,7.43
2023-03-16T08:39:18.762Z,10.50
2023-03-16T08:41:47.098Z,6.47
2023-03-16T08:44:14.306Z,5.97
2023-03-16T08:46:42.352Z,10.95
2023-03-16T08:49:09.782Z,9.55
2023-03-16T08:51:37.071Z,5.80
2023-03-16T08:54:04.363Z,4.53
2023-03-16T08:56:32.429Z,6.65
2023-03-16T08:58:59.742Z,10.98
2023-03-16T09:01:27.570Z,6.85
2023-03-16T09:03:55.066Z,3.53
2023-03-16T09:06:22.531Z,4.03
2023-03-16T09:08:49.778Z,7.50
2023-03-16T09:11:18.731Z,4.05
2023-03-16T09:13:46.275Z,7.13
2023-03-16T09:16:15.267Z,7.63
2023-03-16T09:18:42.902Z,4.20
2023-03-16T09:21:13.125Z,6.40
2023-03-16T09:23:41.849Z,4.65
2023-03-16T09:26:09.700Z,5.13
2023-03-16T09:28:38.997Z,3.65
2023-03-16T09:31:07.070Z,5.22
2023-03-16T09:33:34.746Z,5.10
2023-03-16T09:36:02.094Z,9.88
2023-03-16T09:38:29.316Z,6.65
2023-03-16T09:41:02.659Z,4.22
2023-03-16T09:43:36.092Z,4.45
2023-03-16T09:46:04.219Z,5.93
2023-03-16T09:48:33.907Z,6.35
2023-03-16T09:51:03.575Z,6.45
2023-03-16T09:53:40.325Z,5.07
2023-03-16T09:56:20.250Z,8.85
2023-03-16T09:58:47.432Z,4.35
2023-03-16T10:01:34.627Z,8.32
2023-03-16T10:04:07.662Z,4.72
2023-03-16T10:06:38.837Z,8.40
2023-03-16T10:09:31.813Z,7.15
2023-03-16T10:11:59.521Z,4.50
2023-03-16T10:14:26.701Z,6.60
2023-03-16T10:16:58.363Z,6.30
2023-03-16T10:19:34.773Z,5.03
2023-03-16T10:22:09.179Z,4.47
2023-03-16T10:24:42.453Z,3.80
2023-03-16T10:27:15.564Z,6.47
2023-03-16T10:29:42.789Z,5.40
2023-03-16T10:32:14.115Z,5.40
2023-03-16T10:34:41.516Z,4.93
2023-03-16T10:37:12.132Z,4.28
2023-03-16T10:39:43.006Z,5.40
2023-03-16T10:42:18.017Z,5.45
2023-03-16T10:44:45.994Z,6.78
2023-03-16T10:47:18.191Z,2.80
2023-03-16T10:49:51.241Z,5.68
2023-03-16T10:52:25.440Z,5.18
2023-03-16T10:54:52.638Z,6.00
2023-03-16T10:57:20.865Z,3.63
2023-03-16T10:59:52.222Z,3.63
2023-03-16T11:02:23.592Z,5.82
2023-03-16T11:04:51.176Z,5.40
2023-03-16T11:07:19.165Z,5.45
2023-03-16T11:09:47.854Z,3.50
2023-03-16T11:12:16.171Z,6.53
2023-03-16T11:14:45.304Z,5.95
2023-03-16T11:17:18.045Z,3.55
2023-03-16T11:19:55.135Z,5.95
2023-03-16T11:22:25.818Z,4.00
2023-03-16T11:25:13.379Z,6.35
2023-03-16T11:28:04.030Z,20.48
2023-03-16T11:30:31.166Z,155.60
2023-03-16T11:33:00.624Z,187.10
2023-03-16T11:35:31.381Z,193.43
2023-03-16T11:38:07.860Z,267.88
2023-03-16T11:40:42.204Z,221.23
2023-03-16T11:43:18.720Z,210.60
2023-03-16T11:45:57.411Z,184.13
2023-03-16T11:48:30.609Z,179.45
2023-03-16T11:51:03.729Z,175.80
2023-03-16T11:53:37.016Z,160.02
2023-03-16T11:56:17.204Z,163.60
2023-03-16T11:58:54.492Z,174.15
2023-03-16T12:01:21.734Z,146.30
2023-03-16T12:03:53.792Z,157.30
2023-03-16T12:06:29.689Z,160.95
2023-03-16T12:09:00.514Z,142.55
2023-03-16T12:11:47.361Z,136.23
2023-03-16T12:14:15.737Z,127.40
2023-03-16T12:16:49.532Z,131.57
2023-03-16T12:19:20.041Z,128.43
2023-03-16T12:21:49.160Z,118.78
2023-03-16T12:24:19.251Z,116.85
2023-03-16T12:26:49.616Z,112.78
2023-03-16T12:29:41.874Z,104.43
2023-03-16T12:32:11.912Z,110.05
2023-03-16T12:35:05.314Z,99.18
2023-03-16T12:37:38.968Z,103.25
2023-03-16T12:40:07.876Z,100.38
2023-03-16T12:42:35.777Z,94.57
2023-03-16T12:45:26.419Z,101.25
2023-03-16T12:47:56.488Z,94.68
2023-03-16T12:50:24.689Z,92.55
2023-03-16T12:52:53.448Z,90.50
2023-03-16T12:55:24.799Z,90.80
2023-03-16T12:57:59.366Z,87.10
2023-03-16T13:00:35.747Z,84.63
2023-03-16T13:03:03.488Z,82.80
2023-03-16T13:05:32.856Z,76.82
2023-03-16T13:08:08.972Z,63.80
2023-03-16T13:10:37.516Z,65.47
2023-03-16T13:13:13.206Z,58.33
2023-03-16T13:15:40.602Z,58.80
2023-03-16T13:18:10.594Z,58.60
2023-03-16T13:20:51.537Z,59.20
2023-03-16T13:23:18.731Z,65.13
2023-03-16T13:25:58.715Z,61.80
2023-03-16T13:28:28.995Z,57.03
2023-03-16T13:30:56.518Z,59.92
2023-03-16T13:33:28.347Z,57.55
2023-03-16T13:35:57.538Z,62.00
2023-03-16T13:38:27.640Z,55.92
2023-03-16T13:41:02.344Z,55.65
2023-03-16T13:43:32.953Z,50.03
2023-03-16T13:46:01.104Z,49.00
2023-03-16T13:48:28.357Z,48.72
2023-03-16T13:50:59.772Z,48.40
2023-03-16T13:53:31.026Z,52.00
2023-03-16T13:56:00.064Z,44.40
2023-03-16T13:58:32.135Z,51.20
2023-03-16T14:01:01.743Z,44.15
2023-03-16T14:03:36.893Z,48.63
2023-03-16T14:06:05.198Z,44.97
2023-03-16T14:08:33.971Z,42.50
2023-03-16T14:11:01.898Z,41.53
2023-03-16T14:13:29.542Z,44.17
2023-03-16T14:16:04.510Z,40.15
2023-03-16T14:18:35.955Z,37.88
2023-03-16T14:21:06.657Z,36.72
2023-03-16T14:23:36.490Z,38.22
2023-03-16T14:26:08.070Z,36.78
2023-03-16T14:28:35.334Z,35.60
2023-03-16T14:31:04.954Z,35.35
2023-03-16T14:33:33.689Z,37.05
2023-03-16T14:36:07.723Z,39.42
2023-03-16T14:38:36.908Z,32.83
2023-03-16T14:41:07.567Z,36.08
2023-03-16T14:43:36.685Z,31.88
2023-03-16T14:46:05.619Z,29.42
2023-03-16T14:48:33.639Z,31.35
2023-03-16T14:51:02.052Z,32.75
2023-03-16T14:53:30.074Z,31.13
2023-03-16T14:55:57.735Z,29.23
2023-03-16T14:58:25.660Z,28.05
2023-03-16T15:00:54.276Z,31.25
2023-03-16T15:03:24.593Z,28.25
2023-03-16T15:05:52.341Z,36.08
2023-03-16T15:08:20.017Z,29.13
2023-03-16T15:10:47.351Z,32.95
2023-03-16T15:13:34.404Z,34.60
2023-03-16T15:16:04.413Z,25.70
2023-03-16T15:18:32.620Z,28.98
2023-03-16T15:21:00.412Z,31.15
2023-03-16T15:23:27.972Z,30.45
2023-03-16T15:26:00.152Z,27.15
2023-03-16T15:28:28.344Z,26.30
2023-03-16T15:30:57.260Z,24.95
2023-03-16T15:33:25.033Z,26.70
2023-03-16T15:35:53.554Z,27.50
2023-03-16T15:38:23.205Z,24.95
2023-03-16T15:40:51.266Z,21.52
2023-03-16T15:43:20.017Z,22.42
2023-03-16T15:45:47.882Z,25.98
2023-03-16T15:48:15.537Z,22.70
2023-03-16T15:50:45.037Z,21.58
2023-03-16T15:53:35.281Z,26.40
2023-03-16T15:56:05.077Z,21.98
2023-03-16T15:58:33.121Z,23.40
2023-03-16T16:01:01.754Z,22.27
2023-03-16T16:03:29.106Z,24.60
2023-03-16T16:05:56.479Z,20.38
2023-03-16T16:08:23.800Z,20.45
2023-03-16T16:10:53.177Z,21.67
2023-03-16T16:13:43.686Z,22.08
2023-03-16T16:16:16.161Z,20.52
2023-03-16T16:18:43.626Z,23.75
2023-03-16T16:21:15.789Z,20.95
2023-03-16T16:23:43.117Z,21.15
2023-03-16T16:26:46.876Z,21.25
2023-03-16T16:29:17.198Z,21.73
2023-03-16T16:31:44.841Z,24.70
2023-03-16T16:34:13.190Z,24.88
2023-03-16T16:36:40.582Z,21.35
2023-03-16T16:39:07.771Z,29.88
2023-03-16T16:41:38.635Z,25.33
2023-03-16T16:44:09.710Z,22.95
2023-03-16T16:46:41.971Z,21.20
2023-03-16T16:49:15.220Z,19.60
2023-03-16T16:51:43.313Z,19.52
2023-03-16T16:54:16.575Z,18.55
2023-03-16T16:56:44.157Z,23.15
2023-03-16T16:59:14.978Z,21.98
2023-03-16T17:01:42.324Z,20.98
2023-03-16T17:04:23.275Z,20.88
2023-03-16T17:06:55.068Z,16.33
2023-03-16T17:09:23.758Z,18.33
2023-03-16T17:11:51.496Z,25.88
2023-03-16T17:14:19.920Z,20.20
2023-03-16T17:16:48.272Z,20.15
2023-03-16T17:19:25.924Z,20.70
2023-03-16T17:21:54.081Z,19.75
2023-03-16T17:24:21.700Z,19.58
2023-03-16T17:26:50.856Z,18.50
2023-03-16T17:29:21.084Z,20.85
2023-03-16T17:31:48.842Z,21.38
2023-03-16T17:34:21.343Z,13.48
2023-03-16T17:36:48.927Z,20.20
2023-03-16T17:39:27.067Z,18.23
2023-03-16T17:41:54.255Z,17.17
2023-03-16T17:44:21.647Z,19.90
2023-03-16T17:46:49.287Z,24.17
2023-03-16T17:49:22.198Z,21.10
2023-03-16T17:51:49.363Z,18.38
2023-03-16T17:54:16.523Z,14.75
2023-03-16T17:56:43.844Z,14.85
2023-03-16T17:59:18.641Z,18.02
2023-03-16T18:01:47.117Z,12.50
2023-03-16T18:04:18.307Z,16.00
2023-03-16T18:06:47.457Z,12.85
2023-03-16T18:09:15.815Z,15.57
2023-03-16T18:11:46.620Z,15.15
2023-03-16T18:14:35.510Z,17.92
2023-03-16T18:17:18.172Z,13.80
2023-03-16T18:19:45.716Z,11.77
2023-03-16T18:22:19.409Z,17.35
2023-03-16T18:24:48.458Z,13.90
2023-03-16T18:27:15.834Z,14.32
2023-03-16T18:29:43.757Z,16.48
2023-03-16T18:32:17.668Z,12.05
2023-03-16T18:34:45.622Z,13.23
2023-03-16T18:37:20.066Z,15.63
2023-03-16T18:39:48.111Z,17.35
2023-03-16T18:42:19.699Z,16.25
2023-03-16T18:44:46.958Z,13.32
2023-03-16T18:47:18.436Z,17.65
2023-03-16T18:49:49.213Z,11.43
2023-03-16T18:52:20.800Z,20.02
2023-03-16T18:54:48.214Z,14.93
2023-03-16T18:57:20.057Z,14.57
2023-03-16T18:59:47.513Z,12.50
2023-03-16T19:02:35.346Z,11.52
2023-03-16T19:05:04.463Z,11.80
2023-03-16T19:07:36.075Z,10.20
2023-03-16T19:10:06.089Z,14.10
2023-03-16T19:12:33.433Z,23.55
2023-03-16T19:15:00.604Z,17.73
2023-03-16T19:17:27.812Z,19.40
2023-03-16T19:19:55.307Z,13.20
2023-03-16T19:22:22.586Z,17.33
2023-03-16T19:24:51.178Z,12.50
2023-03-16T19:27:25.596Z,15.82
2023-03-16T19:29:54.207Z,19.38
2023-03-16T19:32:22.209Z,21.65
2023-03-16T19:34:49.544Z,19.13
2023-03-16T19:37:19.574Z,17.40
2023-03-16T19:39:46.795Z,19.73
2023-03-16T19:42:21.082Z,18.23
2023-03-16T19:44:49.832Z,17.75
2023-03-16T19:47:27.385Z,14.57
2023-03-16T19:49:54.644Z,18.45
2023-03-16T19:52:21.901Z,18.48
2023-03-16T19:54:49.344Z,15.85
2023-03-16T19:57:17.827Z,13.57
2023-03-16T19:59:47.579Z,12.63
2023-03-16T20:02:29.914Z,15.98
2023-03-16T20:04:57.645Z,13.18
2023-03-16T20:07:25.779Z,14.65
2023-03-16T20:09:53.079Z,11.57
2023-03-16T20:12:24.929Z,13.82
2023-03-16T20:14:52.587Z,14.23
2023-03-16T20:17:23.225Z,10.55
2023-03-16T20:19:51.085Z,13.88
2023-03-16T20:24:03.514Z,17.67
2023-03-16T20:26:33.143Z,20.67
2023-03-16T20:29:01.634Z,19.90
2023-03-16T20:31:31.356Z,14.88
2023-03-16T20:33:59.272Z,14.40
2023-03-16T20:36:27.099Z,14.13
2023-03-16T20:38:54.423Z,13.98
2023-03-16T20:41:30.952Z,14.63
2023-03-16T20:43:59.279Z,12.93
2023-03-16T20:46:27.848Z,13.95
2023-03-16T20:48:55.257Z,12.48
2023-03-16T20:51:23.353Z,9.88
2023-03-16T20:53:51.364Z,11.95
2023-03-16T20:56:23.010Z,12.00
2023-03-16T20:58:50.996Z,12.43
2023-03-16T21:01:20.561Z,11.85
2023-03-16T21:03:48.889Z,9.40
2023-03-16T21:06:23.416Z,11.52
2023-03-16T21:08:51.992Z,9.93
2023-03-16T21:11:32.872Z,12.57
2023-03-16T21:14:00.556Z,10.18
2023-03-16T21:16:29.016Z,12.80
2023-03-16T21:18:56.388Z,9.82
2023-03-16T21:21:23.903Z,11.30
2023-03-16T21:23:51.504Z,9.43
2023-03-16T21:26:23.681Z,14.25
2023-03-16T21:28:56.572Z,8.90
2023-03-16T21:31:24.366Z,11.02
2023-03-16T21:33:53.783Z,13.30
2023-03-16T21:36:22.286Z,12.10
2023-03-16T21:38:50.560Z,10.20
2023-03-16T21:41:17.921Z,11.05
2023-03-16T21:43:45.319Z,11.23
2023-03-16T21:46:19.616Z,14.35
2023-03-16T21:48:49.652Z,13.63
2023-03-16T21:51:18.947Z,11.88
2023-03-16T21:53:47.156Z,11.85
2023-03-16T21:56:15.638Z,10.85
2023-03-16T21:58:43.963Z,11.65
2023-03-16T22:01:31.599Z,9.93
2023-03-16T22:04:02.739Z,12.02
2023-03-16T22:06:30.090Z,18.73
2023-03-16T22:08:58.706Z,11.60
2023-03-16T22:11:30.088Z,13.40
2023-03-16T22:13:58.162Z,13.32
2023-03-16T22:16:26.775Z,17.15
2023-03-16T22:18:56.572Z,13.55
2023-03-16T22:21:40.254Z,13.10
2023-03-16T22:24:13.116Z,13.50
2023-03-16T22:26:40.421Z,16.45
2023-03-16T22:29:20.479Z,16.95
2023-03-16T22:31:48.126Z,14.55
2023-03-16T22:34:27.391Z,10.70
2023-03-16T22:36:54.749Z,15.82
2023-03-16T22:39:22.053Z,17.60
2023-03-16T22:41:49.315Z,11.65
2023-03-16T22:44:22.658Z,15.00
2023-03-16T22:46:50.745Z,13.57
2023-03-16T22:49:25.662Z,10.95
2023-03-16T22:51:53.429Z,10.07
2023-03-16T22:54:21.756Z,15.35
2023-03-16T22:56:49.031Z,12.20
2023-03-16T22:59:17.698Z,9.63
2023-03-16T23:01:48.520Z,11.32
2023-03-16T23:04:16.981Z,13.25
2023-03-16T23:06:44.319Z,11.95
2023-03-16T23:09:13.846Z,21.02
2023-03-16T23:11:43.459Z,10.07
2023-03-16T23:14:19.444Z,12.00
2023-03-16T23:16:47.512Z,9.23
2023-03-16T23:19:24.756Z,10.10
2023-03-16T23:21:52.984Z,11.13
2023-03-16T23:24:20.189Z,13.77
2023-03-16T23:26:47.615Z,11.25
2023-03-16T23:29:14.850Z,10.88
2023-03-16T23:31:42.570Z,9.30
2023-03-16T23:34:11.595Z,12.25
2023-03-16T23:36:38.887Z,9.63
2023-03-16T23:39:06.165Z,9.48
2023-03-16T23:41:33.567Z,9.25
2023-03-16T23:44:01.472Z,8.70
2023-03-16T23:46:29.416Z,10.90
2023-03-16T23:48:57.488Z,10.73
2023-03-16T23:51:29.071Z,8.55
2023-03-16T23:53:57.396Z,9.65
2023-03-16T23:56:25.077Z,13.60
2023-03-16T23:58:52.341Z,8.77
